This is the latest recevied weather packets stored in our database for station/object E25RIV-1. If no packets are shown the sender has not sent any weather packets the latest 10 day(s).
| Time | Temp. | Humidity | Pressure | Rain* | Wind** | Luminosity | Snow |
|---|---|---|---|---|---|---|---|
| 1777724384 | 30° C | 99% | 1002 hPa | - | - | 0 W/m² | - |
| 1777723760 | 30° C | 99% | 1002 hPa | - | - | 0 W/m² | - |
| 1777723136 | 30.56° C | 99% | 1002 hPa | - | - | 0 W/m² | - |
| 1777722512 | 30.56° C | 98% | 1002 hPa | - | - | 0 W/m² | - |
| 1777721888 | 31.11° C | 94% | 1001 hPa | - | - | 0 W/m² | - |
| 1777721264 | 31.11° C | 92% | 1001 hPa | - | - | 0 W/m² | - |
| 1777720640 | 31.67° C | 87% | 1001 hPa | - | - | 0 W/m² | - |
| 1777720016 | 31.67° C | 85% | 1000 hPa | - | - | 0 W/m² | - |
| 1777719392 | 31.67° C | 79% | 999 hPa | - | - | 0 W/m² | - |
| 1777718768 | 32.22° C | 81% | 999 hPa | - | - | 0 W/m² | - |
| 1777718144 | 32.22° C | 84% | 1000 hPa | - | - | 0 W/m² | - |
| 1777717520 | 32.22° C | 80% | 999 hPa | - | - | 0 W/m² | - |
| 1777716896 | 32.22° C | 80% | 999 hPa | - | - | 0 W/m² | - |
| 1777716272 | 31.67° C | 80% | 999 hPa | - | - | 0 W/m² | - |
| 1777715662 | 31.11° C | 86% | 999 hPa | - | - | 0 W/m² | - |
| 1777715024 | 30.56° C | 90% | 1000 hPa | - | - | 0 W/m² | - |
| 1777714400 | 30° C | 99% | 1001 hPa | - | - | 0 W/m² | - |
| 1777713776 | 30° C | 99% | 1001 hPa | - | - | 0 W/m² | - |
| 1777713153 | 29.44° C | 99% | 1002 hPa | - | - | 0 W/m² | - |
| 1777712529 | 29.44° C | 98% | 1002 hPa | - | - | 0 W/m² | - |
| 1777711904 | 29.44° C | 99% | 1002 hPa | - | - | 0 W/m² | - |
| 1777711280 | 29.44° C | 99% | 1002 hPa | - | - | 0 W/m² | - |
| 1777710657 | 29.44° C | 83% | 1003 hPa | - | - | 0 W/m² | - |
| 1777710032 | 31.11° C | 79% | 1005 hPa | - | - | 0 W/m² | - |
| 1777709409 | 32.22° C | 65% | 1000 hPa | - | - | 0 W/m² | - |
* Rain since midnight (hover to see other rain measurements)
** Current wind speed in m/s (hover to see current wind gust speed)